createdAt,value
2022-09-07T00:01:16.999Z,11.28
2022-09-07T00:03:45.581Z,11.22
2022-09-07T00:06:14.564Z,11.06
2022-09-07T00:08:43.919Z,11.06
2022-09-07T00:11:15.944Z,11.00
2022-09-07T00:13:46.773Z,10.98
2022-09-07T00:16:23.764Z,10.97
2022-09-07T00:18:57.700Z,10.87
2022-09-07T00:21:26.885Z,10.91
2022-09-07T00:23:56.014Z,10.90
2022-09-07T00:26:27.409Z,10.88
2022-09-07T00:29:04.177Z,10.87
2022-09-07T00:31:32.822Z,10.76
2022-09-07T00:34:02.958Z,10.84
2022-09-07T00:36:31.362Z,10.84
2022-09-07T00:38:59.856Z,10.84
2022-09-07T00:41:28.813Z,10.83
2022-09-07T00:43:59.784Z,10.84
2022-09-07T00:46:32.156Z,10.81
2022-09-07T00:49:13.154Z,10.76
2022-09-07T00:51:47.964Z,10.73
2022-09-07T00:54:26.561Z,10.63
2022-09-07T00:56:55.169Z,10.68
2022-09-07T00:59:30.608Z,10.66
2022-09-07T01:01:59.162Z,10.64
2022-09-07T01:04:30.701Z,10.52
2022-09-07T01:07:00.409Z,10.58
2022-09-07T01:09:29.453Z,10.54
2022-09-07T01:12:02.259Z,10.52
2022-09-07T01:14:34.065Z,10.51
2022-09-07T01:17:35.965Z,10.44
2022-09-07T01:20:19.065Z,10.30
2022-09-07T01:23:05.137Z,10.18
2022-09-07T01:25:55.764Z,10.07
2022-09-07T01:28:26.364Z,10.00
2022-09-07T01:31:04.872Z,9.95
2022-09-07T01:33:33.040Z,9.86
2022-09-07T01:36:27.683Z,9.88
2022-09-07T01:39:01.760Z,9.87
2022-09-07T01:41:44.169Z,9.87
2022-09-07T01:44:16.548Z,9.87
2022-09-07T01:46:53.240Z,9.88
2022-09-07T01:49:27.508Z,9.86
2022-09-07T01:52:08.166Z,9.84
2022-09-07T01:54:46.224Z,9.72
2022-09-07T01:57:32.389Z,9.75
2022-09-07T02:00:11.029Z,9.69
2022-09-07T02:02:51.293Z,9.61
2022-09-07T02:05:25.032Z,9.55
2022-09-07T02:07:56.608Z,9.48
2022-09-07T02:10:45.366Z,9.39
2022-09-07T02:13:22.441Z,9.33
2022-09-07T02:16:00.307Z,9.21
2022-09-07T02:18:36.528Z,9.28
2022-09-07T02:21:08.109Z,9.25
2022-09-07T02:23:47.604Z,9.11
2022-09-07T02:26:21.416Z,9.13
2022-09-07T02:28:50.233Z,9.09
2022-09-07T02:31:18.654Z,9.07
2022-09-07T02:33:47.791Z,8.99
2022-09-07T02:36:20.453Z,8.94
2022-09-07T02:38:48.637Z,8.89
2022-09-07T02:41:31.557Z,8.74
2022-09-07T02:44:01.388Z,8.77
2022-09-07T02:47:02.036Z,8.73
2022-09-07T02:49:37.935Z,8.68
2022-09-07T02:52:15.228Z,8.65
2022-09-07T02:55:02.392Z,8.62
2022-09-07T02:58:01.080Z,8.63
2022-09-07T03:00:34.132Z,8.60
2022-09-07T03:03:20.759Z,8.54
2022-09-07T03:05:57.852Z,8.51
2022-09-07T03:08:49.035Z,8.51
2022-09-07T03:11:18.499Z,8.52
2022-09-07T03:13:46.737Z,8.51
2022-09-07T03:16:15.759Z,8.29
2022-09-07T03:18:44.504Z,8.42
2022-09-07T03:21:12.693Z,8.39
2022-09-07T03:23:40.779Z,8.37
2022-09-07T03:26:23.266Z,8.38
2022-09-07T03:28:52.011Z,8.41
2022-09-07T03:31:21.088Z,8.32
2022-09-07T03:33:50.039Z,8.37
2022-09-07T03:36:19.189Z,8.35
2022-09-07T03:38:47.348Z,8.35
2022-09-07T03:41:15.787Z,8.34
2022-09-07T03:43:44.514Z,8.30
2022-09-07T03:46:15.100Z,8.26
2022-09-07T03:48:43.268Z,8.23
2022-09-07T03:51:12.887Z,8.21
2022-09-07T03:53:43.934Z,8.18
2022-09-07T03:56:18.429Z,8.14
2022-09-07T03:58:48.541Z,7.95
2022-09-07T04:01:20.657Z,8.08
2022-09-07T04:03:49.475Z,8.06
2022-09-07T04:06:19.659Z,8.05
2022-09-07T04:08:47.903Z,8.05
2022-09-07T04:11:18.583Z,8.04
2022-09-07T04:13:47.067Z,8.04
2022-09-07T04:16:20.449Z,8.04
2022-09-07T04:18:50.514Z,8.00
2022-09-07T04:21:18.999Z,8.01
2022-09-07T04:23:47.927Z,8.02
2022-09-07T04:26:22.278Z,8.00
2022-09-07T04:28:51.617Z,7.95
2022-09-07T04:31:20.791Z,7.92
2022-09-07T04:33:50.592Z,7.93
2022-09-07T04:36:20.250Z,7.94
2022-09-07T04:38:54.755Z,7.95
2022-09-07T04:41:24.167Z,7.95
2022-09-07T04:43:55.956Z,7.95
2022-09-07T04:46:29.939Z,7.94
2022-09-07T04:49:00.524Z,7.91
2022-09-07T04:51:31.924Z,7.90
2022-09-07T04:54:02.253Z,7.92
2022-09-07T04:56:31.950Z,7.99
2022-09-07T04:59:02.030Z,8.08
2022-09-07T05:01:30.548Z,8.16
2022-09-07T05:04:03.834Z,8.22
2022-09-07T05:06:32.174Z,8.27
2022-09-07T05:09:00.711Z,8.33
2022-09-07T05:11:30.008Z,8.42
2022-09-07T05:13:59.895Z,8.51
2022-09-07T05:16:29.201Z,8.58
2022-09-07T05:19:00.207Z,8.67
2022-09-07T05:21:31.644Z,8.78
2022-09-07T05:24:01.352Z,8.88
2022-09-07T05:26:31.646Z,8.99
2022-09-07T05:31:55.046Z,9.30
2022-09-07T05:34:31.373Z,9.46
2022-09-07T05:37:00.523Z,9.63
2022-09-07T05:39:29.506Z,9.80
2022-09-07T05:41:57.856Z,9.97
2022-09-07T05:47:14.377Z,10.28
2022-09-07T05:49:42.822Z,10.42
2022-09-07T05:52:11.127Z,10.55
2022-09-07T05:54:40.336Z,10.70
2022-09-07T05:57:12.162Z,10.83
2022-09-07T05:59:40.734Z,10.95
2022-09-07T06:02:15.049Z,11.09
2022-09-07T06:04:43.565Z,11.21
2022-09-07T06:07:22.444Z,11.33
2022-09-07T06:12:39.477Z,11.60
2022-09-07T06:15:08.321Z,11.72
2022-09-07T06:17:36.810Z,11.82
2022-09-07T06:20:06.853Z,11.93
2022-09-07T06:22:36.696Z,12.07
2022-09-07T06:25:05.664Z,12.17
2022-09-07T06:27:34.534Z,12.29
2022-09-07T06:30:03.428Z,12.41
2022-09-07T06:32:46.869Z,12.52
2022-09-07T06:35:16.126Z,12.65
2022-09-07T06:37:44.785Z,12.74
2022-09-07T06:40:13.316Z,12.84
2022-09-07T06:42:43.410Z,12.95
2022-09-07T06:45:13.143Z,13.02
2022-09-07T06:47:41.625Z,12.93
2022-09-07T06:50:10.327Z,13.18
2022-09-07T06:55:28.532Z,13.16
2022-09-07T06:57:57.377Z,13.42
2022-09-07T07:00:25.800Z,13.44
2022-09-07T07:02:54.081Z,13.54
2022-09-07T07:05:23.599Z,13.61
2022-09-07T07:07:51.990Z,13.71
2022-09-07T07:10:24.505Z,13.79
2022-09-07T07:12:57.746Z,13.86
2022-09-07T07:15:28.718Z,13.95
2022-09-07T07:18:02.636Z,14.03
2022-09-07T07:20:39.077Z,14.12
2022-09-07T07:23:07.934Z,14.18
2022-09-07T07:25:36.869Z,14.23
2022-09-07T07:31:05.955Z,14.25
2022-09-07T07:33:37.804Z,14.45
2022-09-07T07:36:15.090Z,14.54
2022-09-07T07:39:01.481Z,14.62
2022-09-07T07:44:21.366Z,14.81
2022-09-07T07:46:50.847Z,14.88
2022-09-07T07:49:19.421Z,14.99
2022-09-07T07:54:37.325Z,15.19
2022-09-07T07:57:06.452Z,15.17
2022-09-07T07:59:35.505Z,15.37
2022-09-07T08:02:06.242Z,15.49
2022-09-07T08:04:35.539Z,15.61
2022-09-07T08:07:09.528Z,15.63
2022-09-07T08:09:44.087Z,15.81
2022-09-07T08:12:17.336Z,15.85
2022-09-07T08:14:48.097Z,16.00
2022-09-07T08:17:17.515Z,16.13
2022-09-07T08:19:46.061Z,16.31
2022-09-07T08:22:14.450Z,16.47
2022-09-07T08:24:43.017Z,16.56
2022-09-07T08:27:11.480Z,16.62
2022-09-07T08:29:39.775Z,16.74
2022-09-07T08:32:08.189Z,16.89
2022-09-07T08:34:37.471Z,17.10
2022-09-07T08:37:06.065Z,17.33
2022-09-07T08:39:36.068Z,17.52
2022-09-07T08:42:26.676Z,17.76
2022-09-07T08:45:06.545Z,18.10
2022-09-07T08:47:43.840Z,18.53
2022-09-07T08:50:17.788Z,18.81
2022-09-07T08:53:00.392Z,19.02
2022-09-07T08:55:33.941Z,19.34
2022-09-07T08:58:32.621Z,19.58
2022-09-07T09:01:34.482Z,19.77
2022-09-07T09:04:19.421Z,20.16
2022-09-07T09:07:07.267Z,20.46
2022-09-07T09:09:54.657Z,20.65
2022-09-07T09:13:01.542Z,21.05
2022-09-07T09:15:48.540Z,21.64
2022-09-07T09:18:50.513Z,21.89
2022-09-07T09:21:20.351Z,22.32
2022-09-07T09:23:52.721Z,22.82
2022-09-07T09:26:27.268Z,23.07
2022-09-07T09:28:55.665Z,23.36
2022-09-07T09:31:28.498Z,23.84
2022-09-07T09:34:06.089Z,24.31
2022-09-07T09:36:40.940Z,24.66
2022-09-07T09:39:36.239Z,25.18
2022-09-07T09:42:07.816Z,25.72
2022-09-07T09:44:38.527Z,26.08
2022-09-07T09:49:58.224Z,26.46
2022-09-07T09:52:33.627Z,26.78
2022-09-07T09:55:30.680Z,27.21
2022-09-07T10:03:59.729Z,27.89
2022-09-07T10:06:29.936Z,28.06
2022-09-07T10:09:01.056Z,28.32
2022-09-07T10:14:31.766Z,28.58
2022-09-07T10:17:02.288Z,29.03
2022-09-07T10:19:39.828Z,29.26
2022-09-07T10:22:37.316Z,29.17
2022-09-07T10:25:44.528Z,29.11
2022-09-07T10:28:23.961Z,29.30
2022-09-07T10:31:01.906Z,29.40
2022-09-07T10:37:01.363Z,29.76
2022-09-07T10:40:00.145Z,29.76
2022-09-07T10:42:36.652Z,29.94
2022-09-07T10:45:36.096Z,30.05
2022-09-07T10:48:25.371Z,30.16
2022-09-07T10:51:01.441Z,30.09
2022-09-07T10:57:13.720Z,29.13
2022-09-07T11:00:14.012Z,29.06
2022-09-07T11:06:25.944Z,29.15
2022-09-07T11:12:01.576Z,29.20
2022-09-07T11:15:02.448Z,29.22
2022-09-07T11:17:35.501Z,29.26
2022-09-07T11:20:22.483Z,29.46
2022-09-07T11:23:24.632Z,29.39
2022-09-07T11:26:02.675Z,29.39
2022-09-07T11:29:29.123Z,29.75
2022-09-07T11:31:43.748Z,30.10
2022-09-07T11:34:35.715Z,30.08
2022-09-07T11:37:14.293Z,30.17
2022-09-07T11:39:55.610Z,30.26
2022-09-07T11:42:53.399Z,30.41
2022-09-07T11:45:25.460Z,30.56
2022-09-07T11:48:01.977Z,30.51
2022-09-07T11:50:36.280Z,30.49
2022-09-07T11:53:09.963Z,30.59
2022-09-07T11:55:44.317Z,30.57
2022-09-07T11:58:30.562Z,30.75
2022-09-07T12:01:23.675Z,31.01
2022-09-07T12:04:14.731Z,30.79
2022-09-07T12:06:53.709Z,30.39
2022-09-07T12:09:40.065Z,30.20
2022-09-07T12:12:26.923Z,30.04
2022-09-07T12:15:24.482Z,29.85
2022-09-07T12:18:19.881Z,29.58
2022-09-07T12:20:49.453Z,29.60
2022-09-07T12:23:17.473Z,29.83
2022-09-07T12:25:48.295Z,30.11
2022-09-07T12:28:56.505Z,30.16
2022-09-07T12:34:36.113Z,30.80
2022-09-07T12:37:12.620Z,30.76
2022-09-07T12:39:44.367Z,31.01
2022-09-07T12:45:39.344Z,31.76
2022-09-07T12:48:16.478Z,32.20
2022-09-07T12:50:59.939Z,32.31
2022-09-07T12:53:33.616Z,32.41
2022-09-07T12:56:17.012Z,32.17
2022-09-07T12:59:23.973Z,31.65
2022-09-07T13:02:12.086Z,31.62
2022-09-07T13:05:21.214Z,31.85
2022-09-07T13:08:14.354Z,31.95
2022-09-07T13:10:43.839Z,32.28
2022-09-07T13:13:14.711Z,31.79
2022-09-07T13:15:44.864Z,31.68
2022-09-07T13:18:28.813Z,32.02
2022-09-07T13:21:09.508Z,32.22
2022-09-07T13:23:38.495Z,32.33
2022-09-07T13:26:10.895Z,32.27
2022-09-07T13:28:48.339Z,32.15
2022-09-07T13:31:45.373Z,32.02
2022-09-07T13:34:32.204Z,31.50
2022-09-07T13:37:02.743Z,31.52
2022-09-07T13:39:40.601Z,31.47
2022-09-07T13:42:16.103Z,31.67
2022-09-07T13:44:53.502Z,32.02
2022-09-07T13:47:53.662Z,32.19
2022-09-07T13:50:36.308Z,32.21
2022-09-07T13:53:13.697Z,31.45
2022-09-07T13:55:54.314Z,30.73
2022-09-07T13:58:44.285Z,29.57
2022-09-07T14:01:12.834Z,28.96
2022-09-07T14:03:56.218Z,28.53
2022-09-07T14:06:25.756Z,28.24
2022-09-07T14:09:00.798Z,28.03
2022-09-07T14:11:45.626Z,27.66
2022-09-07T14:14:20.024Z,27.28
2022-09-07T14:17:02.823Z,26.71
2022-09-07T14:19:45.329Z,26.45
2022-09-07T14:22:21.009Z,26.19
2022-09-07T14:24:57.020Z,26.41
2022-09-07T14:27:27.180Z,26.40
2022-09-07T14:29:55.493Z,26.43
2022-09-07T14:32:25.231Z,26.51
2022-09-07T14:34:53.748Z,26.74
2022-09-07T14:37:23.704Z,26.83
2022-09-07T14:39:54.017Z,26.80
2022-09-07T14:42:24.834Z,26.44
2022-09-07T14:45:18.142Z,26.19
2022-09-07T14:47:49.232Z,25.75
2022-09-07T14:50:35.199Z,25.44
2022-09-07T14:56:02.667Z,24.58
2022-09-07T14:58:32.624Z,24.11
2022-09-07T15:04:02.342Z,23.03
2022-09-07T15:09:36.347Z,22.73
2022-09-07T15:12:04.912Z,22.75
2022-09-07T15:14:33.460Z,22.67
2022-09-07T15:19:51.321Z,22.79
2022-09-07T15:22:19.500Z,22.87
2022-09-07T15:24:51.215Z,23.10
2022-09-07T15:27:21.660Z,23.19
2022-09-07T15:29:49.959Z,23.04
2022-09-07T15:32:18.868Z,23.14
2022-09-07T15:34:47.220Z,23.31
2022-09-07T15:40:22.382Z,23.36
2022-09-07T15:43:19.448Z,23.34
2022-09-07T15:45:45.179Z,23.37
2022-09-07T15:48:21.035Z,23.38
2022-09-07T15:50:49.722Z,23.12
2022-09-07T15:56:06.638Z,22.56
2022-09-07T15:58:35.262Z,22.30
2022-09-07T16:03:54.085Z,21.97
2022-09-07T16:06:24.004Z,21.83
2022-09-07T16:08:54.020Z,21.63
2022-09-07T16:11:25.130Z,21.35
2022-09-07T16:14:12.561Z,21.04
2022-09-07T16:19:29.250Z,20.43
2022-09-07T16:21:57.861Z,20.02
2022-09-07T16:24:28.014Z,19.92
2022-09-07T16:26:57.269Z,19.71
2022-09-07T16:29:25.722Z,19.56
2022-09-07T16:34:42.414Z,19.22
2022-09-07T16:37:10.822Z,19.02
2022-09-07T16:39:39.458Z,18.87
2022-09-07T16:42:07.967Z,18.65
2022-09-07T16:44:36.589Z,18.50
2022-09-07T16:47:05.179Z,18.34
2022-09-07T16:49:33.822Z,18.21
2022-09-07T16:52:02.377Z,18.07
2022-09-07T16:54:32.495Z,17.84
2022-09-07T16:57:01.301Z,17.77
2022-09-07T16:59:29.606Z,17.64
2022-09-07T17:01:57.966Z,17.35
2022-09-07T17:04:26.276Z,17.44
2022-09-07T17:06:54.613Z,17.34
2022-09-07T17:09:26.630Z,17.10
2022-09-07T17:11:55.254Z,17.09
2022-09-07T17:14:23.653Z,16.96
2022-09-07T17:16:52.478Z,16.83
2022-09-07T17:19:29.696Z,16.75
2022-09-07T17:22:00.016Z,16.62
2022-09-07T17:24:31.873Z,16.49
2022-09-07T17:27:01.286Z,16.39
2022-09-07T17:29:33.115Z,16.30
2022-09-07T17:34:51.371Z,16.12
2022-09-07T17:37:21.353Z,16.03
2022-09-07T17:39:49.869Z,15.95
2022-09-07T17:42:18.217Z,15.88
2022-09-07T17:44:46.509Z,15.82
2022-09-07T17:47:15.089Z,15.79
2022-09-07T17:49:43.942Z,15.76
2022-09-07T17:52:12.290Z,15.70
2022-09-07T17:54:40.634Z,15.62
2022-09-07T17:57:09.742Z,15.54
2022-09-07T18:02:26.449Z,15.44
2022-09-07T18:04:54.893Z,15.29
2022-09-07T18:07:23.621Z,15.34
2022-09-07T18:09:53.329Z,15.16
2022-09-07T18:12:23.029Z,15.28
2022-09-07T18:14:51.402Z,15.26
2022-09-07T18:17:20.021Z,15.23
2022-09-07T18:19:48.311Z,15.20
2022-09-07T18:22:18.219Z,15.08
2022-09-07T18:24:46.457Z,15.10
2022-09-07T18:27:14.813Z,15.00
2022-09-07T18:29:43.633Z,15.01
2022-09-07T18:32:12.137Z,14.92
2022-09-07T18:34:41.334Z,14.84
2022-09-07T18:37:12.443Z,14.93
2022-09-07T18:39:41.208Z,14.88
2022-09-07T18:42:10.202Z,14.72
2022-09-07T18:47:29.152Z,14.73
2022-09-07T18:49:58.683Z,14.44
2022-09-07T18:55:16.680Z,14.60
2022-09-07T18:57:45.504Z,14.68
2022-09-07T19:00:14.915Z,14.66
2022-09-07T19:02:43.229Z,14.62
2022-09-07T19:08:02.794Z,14.51
2022-09-07T19:10:36.957Z,14.54
2022-09-07T19:13:05.685Z,14.52
2022-09-07T19:15:37.462Z,14.49
2022-09-07T19:18:08.110Z,14.47
2022-09-07T19:20:36.965Z,14.46
2022-09-07T19:23:06.014Z,14.45
2022-09-07T19:25:34.442Z,14.43
2022-09-07T19:28:02.994Z,14.34
2022-09-07T19:30:34.698Z,14.41
2022-09-07T19:33:04.647Z,14.42
2022-09-07T19:35:35.182Z,14.41
2022-09-07T19:38:03.758Z,14.41
2022-09-07T19:40:32.658Z,14.39
2022-09-07T19:43:01.157Z,14.36
2022-09-07T19:45:29.630Z,14.39
2022-09-07T19:47:58.997Z,14.38
2022-09-07T19:50:27.313Z,14.36
2022-09-07T19:52:55.623Z,14.21
2022-09-07T19:55:23.997Z,14.32
2022-09-07T19:57:52.653Z,14.30
2022-09-07T20:00:21.075Z,14.29
2022-09-07T20:02:50.390Z,14.27
2022-09-07T20:05:19.422Z,14.24
2022-09-07T20:07:47.747Z,14.22
2022-09-07T20:10:16.650Z,14.22
2022-09-07T20:12:45.358Z,14.20
2022-09-07T20:15:13.874Z,14.03
2022-09-07T20:17:42.145Z,14.14
2022-09-07T20:20:10.734Z,14.12
2022-09-07T20:22:39.477Z,14.10
2022-09-07T20:25:13.027Z,14.08
2022-09-07T20:27:42.117Z,14.05
2022-09-07T20:30:11.326Z,14.05
2022-09-07T20:32:39.773Z,14.04
2022-09-07T20:35:08.413Z,14.04
2022-09-07T20:37:37.035Z,14.03
2022-09-07T20:40:06.621Z,14.02
2022-09-07T20:42:35.018Z,14.03
2022-09-07T20:45:04.020Z,14.02
2022-09-07T20:47:32.549Z,14.04
2022-09-07T20:50:00.779Z,14.05
2022-09-07T20:52:30.277Z,14.06
2022-09-07T20:54:58.524Z,14.08
2022-09-07T20:57:27.073Z,14.07
2022-09-07T20:59:55.938Z,14.04
2022-09-07T21:02:24.305Z,14.02
2022-09-07T21:04:52.643Z,14.01
2022-09-07T21:07:20.947Z,13.99
2022-09-07T21:09:50.072Z,13.98
2022-09-07T21:12:18.332Z,13.97
2022-09-07T21:14:47.050Z,13.96
2022-09-07T21:17:15.422Z,13.94
2022-09-07T21:19:43.731Z,13.93
2022-09-07T21:22:12.047Z,13.90
2022-09-07T21:24:40.630Z,13.80
2022-09-07T21:27:09.258Z,13.89
2022-09-07T21:29:37.554Z,13.86
2022-09-07T21:32:05.799Z,13.82
2022-09-07T21:34:34.064Z,13.64
2022-09-07T21:37:02.343Z,13.77
2022-09-07T21:39:30.690Z,13.75
2022-09-07T21:41:59.074Z,13.61
2022-09-07T21:44:27.485Z,13.57
2022-09-07T21:46:55.938Z,13.71
2022-09-07T21:49:24.322Z,13.69
2022-09-07T21:51:52.667Z,13.66
2022-09-07T21:54:20.971Z,13.63
2022-09-07T21:56:49.423Z,13.62
2022-09-07T21:59:17.754Z,13.61
2022-09-07T22:01:46.121Z,13.59
2022-09-07T22:04:14.925Z,13.57
2022-09-07T22:06:44.081Z,13.55
2022-09-07T22:09:12.708Z,13.52
2022-09-07T22:11:45.395Z,13.50
2022-09-07T22:14:15.936Z,13.47
2022-09-07T22:16:44.867Z,13.45
2022-09-07T22:19:13.475Z,13.45
2022-09-07T22:21:41.752Z,13.45
2022-09-07T22:24:12.131Z,13.43
2022-09-07T22:26:40.391Z,13.21
2022-09-07T22:29:11.863Z,13.43
2022-09-07T22:31:41.254Z,13.44
2022-09-07T22:34:10.651Z,13.43
2022-09-07T22:36:42.294Z,13.41
2022-09-07T22:39:16.623Z,13.40
2022-09-07T22:41:47.387Z,13.39
2022-09-07T22:44:18.420Z,13.30
2022-09-07T22:46:47.782Z,13.40
2022-09-07T22:49:17.443Z,13.40
2022-09-07T22:51:46.354Z,13.39
2022-09-07T22:54:14.684Z,13.40
2022-09-07T22:56:43.283Z,13.42
2022-09-07T22:59:12.689Z,13.42
2022-09-07T23:01:41.421Z,13.42
2022-09-07T23:04:11.271Z,13.43
2022-09-07T23:06:42.034Z,13.42
2022-09-07T23:09:16.257Z,13.43
2022-09-07T23:11:47.081Z,13.43
2022-09-07T23:14:22.325Z,13.42
2022-09-07T23:16:51.418Z,13.40
2022-09-07T23:19:20.766Z,13.38
2022-09-07T23:21:49.577Z,13.35
2022-09-07T23:24:19.435Z,13.32
2022-09-07T23:26:47.910Z,13.33
2022-09-07T23:29:16.414Z,13.32
2022-09-07T23:31:48.334Z,13.31
2022-09-07T23:34:16.841Z,13.30
2022-09-07T23:36:45.105Z,13.29
2022-09-07T23:39:13.486Z,13.29
2022-09-07T23:41:41.913Z,13.28
2022-09-07T23:44:11.094Z,13.27
2022-09-07T23:46:39.834Z,13.28
2022-09-07T23:49:08.164Z,13.29
2022-09-07T23:51:36.438Z,13.21
2022-09-07T23:54:05.013Z,13.31
2022-09-07T23:56:33.505Z,13.32
2022-09-07T23:59:01.745Z,13.32
